Time;durP1;ratioP1;P1;durP2;ratioP2;P2;SDS_P1;SDS_P2;PMS_P1;PMS_P2;Temp;Humidity;BMP_temperature;BMP_pressure;BME280_temperature;BME280_humidity;BME280_pressure;Samples;Min_cycle;Max_cycle;Signal;HPM_P1;HPM_P2
2022/07/10 00:00:47;;;;;;;3.50;3.27;;;;;;;18.49;80.46;99715.26;1690411;84;21166;-75
2022/07/10 00:03:13;;;;;;;;;;;;;;;18.45;80.78;99718.20;1702008;82;21021;-77
2022/07/10 00:05:40;;;;;;;4.15;3.80;;;;;;;18.45;81.54;99712.25;1687004;84;20136;-78
2022/07/10 00:08:06;;;;;;;4.80;3.42;;;;;;;18.44;81.72;99711.99;1693492;84;21047;-77
2022/07/10 00:10:33;;;;;;;;;;;;;;;18.47;81.27;99718.21;1694398;83;21000;-76
2022/07/10 00:12:59;;;;;;;4.28;3.87;;;;;;;18.46;80.84;99720.64;1695397;84;20131;-79
2022/07/10 00:15:26;;;;;;;4.30;3.90;;;;;;;18.37;81.05;99720.82;1705012;84;21059;-81
2022/07/10 00:17:52;;;;;;;3.55;3.25;;;;;;;18.32;81.39;99727.51;1702752;84;21005;-78
2022/07/10 00:20:19;;;;;;;;;;;;;;;18.32;81.80;99721.30;1708696;84;21542;-79
2022/07/10 00:22:46;;;;;;;;;;;;;;;18.32;81.80;99724.00;1700467;82;20115;-78
2022/07/10 00:25:14;;;;;;;3.72;3.40;;;;;;;18.28;81.86;99722.34;1699636;82;20102;-78
2022/07/10 00:27:41;;;;;;;4.67;3.92;;;;;;;18.22;82.21;99720.67;1707934;82;21060;-79
2022/07/10 00:30:11;;;;;;;4.03;3.72;;;;;;;18.20;82.37;99716.88;1684726;83;21516;-81
2022/07/10 00:32:37;;;;;;;4.83;3.83;;;;;;;18.21;82.41;99720.38;1674789;83;21010;-80
2022/07/10 00:35:06;;;;;;;3.27;3.08;;;;;;;18.19;82.46;99719.81;1681689;81;21069;-78
2022/07/10 00:37:33;;;;;;;4.85;4.42;;;;;;;18.19;82.66;99722.52;1677472;83;21086;-79
2022/07/10 00:40:00;;;;;;;4.60;3.40;;;;;;;18.20;82.77;99724.16;1679824;83;21054;-78
2022/07/10 00:42:27;;;;;;;3.52;3.27;;;;;;;18.21;83.03;99725.23;1678896;83;21186;-78
2022/07/10 00:44:53;;;;;;;4.15;3.85;;;;;;;18.22;82.80;99720.13;1694293;83;21118;-78
2022/07/10 00:47:21;;;;;;;4.45;4.08;;;;;;;18.18;82.89;99715.51;1689155;83;21053;-77
2022/07/10 00:49:50;;;;;;;5.22;4.80;;;;;;;18.16;83.55;99718.45;1699681;83;21021;-77
2022/07/10 00:52:18;;;;;;;4.95;4.45;;;;;;;18.19;83.32;99721.17;1686701;83;21009;-77
2022/07/10 00:54:48;;;;;;;6.70;4.72;;;;;;;18.18;83.61;99715.51;1694798;83;21037;-77
2022/07/10 00:57:15;;;;;;;3.83;3.52;;;;;;;18.18;83.33;99707.42;1686024;81;21621;-76
2022/07/10 00:59:42;;;;;;;4.03;3.80;;;;;;;18.17;83.30;99705.78;1684828;83;21057;-76
2022/07/10 01:02:09;;;;;;;4.55;4.03;;;;;;;18.15;83.63;99699.28;1680804;83;20990;-77
2022/07/10 01:04:36;;;;;;;2.92;2.80;;;;;;;18.13;83.61;99700.07;1688469;83;21132;-78
2022/07/10 01:07:04;;;;;;;4.03;3.72;;;;;;;18.10;83.51;99703.27;1685311;83;20966;-78
2022/07/10 01:09:33;;;;;;;4.08;3.52;;;;;;;18.03;83.58;99699.98;1675069;83;21001;-76
2022/07/10 01:12:04;;;;;;;4.17;3.47;;;;;;;17.97;83.89;99701.80;1698106;83;20990;-76
2022/07/10 01:14:31;;;;;;;5.15;4.72;;;;;;;17.95;84.11;99700.41;1686385;83;21053;-76
2022/07/10 01:17:00;;;;;;;;;;;;;;;17.92;84.60;99699.04;1698408;83;21507;-76
2022/07/10 01:19:26;;;;;;;3.60;3.27;;;;;;;17.94;84.49;99692.86;1696854;83;20101;-77
2022/07/10 01:21:54;;;;;;;3.27;2.98;;;;;;;17.85;84.57;99697.06;1692152;83;21137;-77
2022/07/10 01:24:20;;;;;;;;;;;;;;;17.80;84.95;99687.53;1693447;81;20994;-76
2022/07/10 01:26:46;;;;;;;4.85;4.28;;;;;;;17.80;85.35;99690.23;1697128;83;20439;-77
2022/07/10 01:29:12;;;;;;;3.77;3.58;;;;;;;17.75;85.16;99684.25;1700804;83;21042;-75
2022/07/10 01:31:40;;;;;;;3.77;3.05;;;;;;;17.73;85.21;99681.00;1693080;83;21154;-75
2022/07/10 01:34:11;;;;;;;3.33;3.12;;;;;;;17.72;85.01;99680.70;1686720;83;21112;-77
2022/07/10 01:36:38;;;;;;;5.62;3.30;;;;;;;17.68;85.33;99679.05;1678985;83;21001;-76
2022/07/10 01:39:07;;;;;;;5.80;3.52;;;;;;;17.66;85.82;99673.63;1693817;83;21013;-80
2022/07/10 01:41:33;;;;;;;4.17;3.75;;;;;;;17.66;85.74;99674.44;1679409;83;21038;-80
2022/07/10 01:44:00;;;;;;;4.12;3.83;;;;;;;17.65;85.66;99674.17;1678557;83;20994;-79
2022/07/10 01:46:26;;;;;;;5.33;3.65;;;;;;;17.62;86.12;99669.27;1680907;84;21244;-76
2022/07/10 01:48:53;;;;;;;3.65;3.45;;;;;;;17.62;86.42;99667.13;1677731;84;20998;-76
2022/07/10 01:51:20;;;;;;;4.17;3.00;;;;;;;17.64;87.28;99664.45;1674169;84;21026;-77
2022/07/10 01:53:47;;;;;;;3.52;3.33;;;;;;;17.68;86.22;99662.88;1688677;84;21048;-77
2022/07/10 01:56:18;;;;;;;2.95;2.80;;;;;;;17.68;86.33;99660.72;1680407;83;21065;-76
2022/07/10 01:58:44;;;;;;;3.17;3.02;;;;;;;17.71;86.24;99662.38;1683334;84;21069;-77
2022/07/10 02:01:13;;;;;;;3.92;2.92;;;;;;;17.74;85.62;99662.94;1678123;83;21077;-76
2022/07/10 02:06:25;;;;;;;2.65;2.52;;;;;;;17.33;85.48;99609.40;1680286;84;21010;-75
2022/07/10 02:08:51;;;;;;;;;;;;;;;17.56;85.72;99656.81;1690241;84;21513;-75
2022/07/10 02:11:18;;;;;;;3.08;2.40;;;;;;;17.54;85.78;99661.64;1686655;83;20118;-76
2022/07/10 02:13:44;;;;;;;3.17;2.02;;;;;;;17.46;85.76;99661.55;1684394;83;21030;-76
2022/07/10 02:16:10;;;;;;;2.25;2.05;;;;;;;17.41;85.66;99663.36;1689755;83;21002;-76
2022/07/10 02:18:36;;;;;;;2.87;2.77;;;;;;;17.34;85.96;99660.03;1689641;84;21037;-75
2022/07/10 02:21:02;;;;;;;;;;;;;;;17.28;86.46;99656.45;1689936;83;21092;-74
2022/07/10 02:23:29;;;;;;;2.35;2.20;;;;;;;17.26;86.34;99651.31;1689181;83;20487;-74
2022/07/10 02:25:56;;;;;;;3.58;3.27;;;;;;;17.19;86.54;99649.87;1692606;84;21006;-73
2022/07/10 02:28:22;;;;;;;2.20;2.02;;;;;;;17.18;86.68;99648.23;1686139;83;22350;-74
2022/07/10 02:30:48;;;;;;;2.27;2.17;;;;;;;17.20;86.99;99649.63;1685305;83;21034;-74
2022/07/10 02:33:14;;;;;;;;;;;;;;;17.24;86.70;99652.09;1689277;83;21546;-75
2022/07/10 02:35:41;;;;;;;5.67;2.00;;;;;;;17.28;87.07;99653.77;1687327;83;21183;-74
2022/07/10 02:38:07;;;;;;;2.70;2.60;;;;;;;17.28;86.47;99642.99;1688580;83;21069;-73
2022/07/10 02:40:33;;;;;;;2.80;2.00;;;;;;;17.26;86.29;99649.97;1691451;83;21524;-75
2022/07/10 02:42:59;;;;;;;;;;;;;;;17.25;86.26;99647.01;1689256;83;21028;-76
2022/07/10 02:45:26;;;;;;;5.80;2.12;;;;;;;17.23;86.38;99642.91;1688678;83;20253;-75
2022/07/10 02:47:52;;;;;;;2.50;1.87;;;;;;;17.18;86.94;99646.37;1689012;83;21026;-75
2022/07/10 02:50:18;;;;;;;2.95;2.17;;;;;;;17.21;86.67;99647.20;1685501;83;21089;-76
2022/07/10 02:52:44;;;;;;;2.55;1.42;;;;;;;17.24;86.66;99641.86;1691877;83;21510;-74
2022/07/10 02:55:11;;;;;;;;;;;;;;;17.34;86.58;99638.48;1685638;83;21108;-75
2022/07/10 02:57:37;;;;;;;1.98;1.75;;;;;;;17.53;85.51;99647.07;1680989;83;20106;-75
2022/07/10 03:00:06;;;;;;;1.95;1.85;;;;;;;17.55;84.67;99647.62;1689596;83;21124;-74
2022/07/10 03:02:36;;;;;;;1.95;1.85;;;;;;;17.54;84.32;99642.78;1693679;83;21062;-76
2022/07/10 03:05:03;;;;;;;3.80;2.08;;;;;;;17.50;84.44;99647.86;1698276;83;21009;-75
2022/07/10 03:07:29;;;;;;;2.35;1.70;;;;;;;17.73;85.26;99640.58;1690783;83;20992;-75
2022/07/10 03:09:56;;;;;;;2.00;1.85;;;;;;;18.22;82.43;99637.86;1692707;83;20990;-77
2022/07/10 03:12:23;;;;;;;2.10;1.98;;;;;;;18.81;80.21;99632.95;1679100;83;20998;-76
2022/07/10 03:14:49;;;;;;;;;;;;;;;19.44;78.37;99630.88;1694594;83;21002;-77
2022/07/10 03:17:15;;;;;;;4.37;2.00;;;;;;;20.05;74.58;99637.01;1689044;83;20138;-76
2022/07/10 03:19:41;;;;;;;2.08;1.95;;;;;;;20.48;72.22;99636.23;1692099;83;21193;-78
2022/07/10 03:22:07;;;;;;;;;;;;;;;20.86;70.17;99635.96;1693652;83;21088;-76
2022/07/10 03:24:33;;;;;;;2.05;1.50;;;;;;;21.25;68.53;99639.36;1693559;83;20149;-76
2022/07/10 03:27:00;;;;;;;2.58;2.47;;;;;;;21.61;66.73;99637.92;1693596;83;21486;-77
2022/07/10 03:29:26;;;;;;;3.83;1.75;;;;;;;21.92;65.19;99638.00;1681533;83;21033;-76
2022/07/10 03:31:53;;;;;;;1.72;1.62;;;;;;;22.32;64.17;99632.59;1683001;83;21037;-77
2022/07/10 03:34:19;;;;;;;2.72;2.08;;;;;;;22.74;62.19;99630.62;1689322;83;21473;-72
2022/07/10 03:36:45;;;;;;;3.27;1.10;;;;;;;23.12;60.15;99631.34;1695414;83;21223;-71
2022/07/10 03:39:13;;;;;;;2.15;1.82;;;;;;;23.35;59.35;99628.91;1691816;83;21009;-73
2022/07/10 03:41:39;;;;;;;5.40;1.90;;;;;;;23.56;58.71;99619.38;1697590;83;21473;-73
2022/07/10 03:44:07;;;;;;;2.27;1.87;;;;;;;23.69;57.25;99624.10;1689250;83;21040;-73
2022/07/10 03:46:33;;;;;;;2.22;1.52;;;;;;;23.81;56.88;99624.25;1687785;83;21336;-74
2022/07/10 03:49:00;;;;;;;3.20;1.72;;;;;;;23.94;56.74;99630.34;1698123;83;21129;-69
2022/07/10 03:51:26;;;;;;;1.65;1.47;;;;;;;24.10;55.79;99629.55;1698328;83;21558;-75
2022/07/10 03:53:52;;;;;;;1.57;1.47;;;;;;;24.25;55.57;99622.50;1685731;83;21077;-75
2022/07/10 03:59:03;;;;;;;1.98;1.45;;;;;;;24.53;54.45;99621.27;1690254;84;21037;-77
2022/07/10 04:01:29;;;;;;;2.08;1.85;;;;;;;24.57;54.57;99616.83;1690527;83;21521;-75
2022/07/10 04:03:55;;;;;;;2.37;2.17;;;;;;;24.72;54.47;99618.48;1692574;83;21521;-73
2022/07/10 04:06:22;;;;;;;4.33;3.92;;;;;;;24.95;52.83;99618.05;1684053;83;21089;-73
2022/07/10 04:08:49;;;;;;;2.45;1.32;;;;;;;24.99;53.57;99619.62;1690527;83;21060;-75
2022/07/10 04:11:15;;;;;;;5.28;4.90;;;;;;;25.09;52.21;99621.33;1672380;83;21092;-73
2022/07/10 04:13:42;;;;;;;2.45;2.25;;;;;;;25.06;52.97;99619.47;1689946;83;21517;-77
2022/07/10 04:16:12;;;;;;;2.22;1.60;;;;;;;25.29;51.77;99618.23;1686405;83;20999;-78
2022/07/10 04:18:37;;;;;;;1.80;1.62;;;;;;;25.41;51.05;99618.54;1694468;83;21089;-77
2022/07/10 04:21:03;;;;;;;1.10;0.90;;;;;;;25.51;50.51;99618.08;1691009;83;21132;-78
2022/07/10 04:23:29;;;;;;;3.08;1.30;;;;;;;25.52;49.88;99623.20;1691785;81;20982;-75
2022/07/10 04:25:57;;;;;;;1.15;0.80;;;;;;;25.51;50.51;99620.80;1697264;83;20993;-76
2022/07/10 04:28:24;;;;;;;1.47;1.37;;;;;;;25.62;50.09;99629.02;1692408;83;21140;-75
2022/07/10 04:30:51;;;;;;;2.02;1.85;;;;;;;25.68;49.69;99629.16;1692983;83;21179;-78
2022/07/10 04:33:17;;;;;;;1.40;0.50;;;;;;;25.40;49.79;99626.46;1693168;83;21049;-74
2022/07/10 04:35:43;;;;;;;4.47;0.78;;;;;;;25.06;50.69;99627.64;1689085;83;21103;-76
2022/07/10 04:38:10;;;;;;;1.12;0.85;;;;;;;24.62;52.03;99629.02;1700313;83;20974;-78
2022/07/10 04:40:39;;;;;;;2.02;1.92;;;;;;;24.39;52.72;99628.55;1684282;83;20994;-77
2022/07/10 04:43:52;;;;;;;1.65;1.62;;;;;;;24.33;53.35;99614.20;1764881;79;22770;-77
2022/07/10 04:46:18;;;;;;;1.70;1.60;;;;;;;24.27;53.84;99608.03;1703407;81;21018;-79
2022/07/10 04:48:44;;;;;;;1.17;1.10;;;;;;;24.36;54.19;99605.45;1701336;83;21069;-75
2022/07/10 04:51:10;;;;;;;1.45;1.07;;;;;;;24.51;53.55;99618.56;1701537;83;21080;-81
2022/07/10 04:53:49;;;;;;;0.70;0.70;;;;;;;24.58;53.10;99618.46;1697960;83;21019;-78
2022/07/10 04:56:18;;;;;;;1.98;1.40;;;;;;;24.64;53.21;99623.27;1698309;83;21025;-77
2022/07/10 04:58:45;;;;;;;2.83;1.05;;;;;;;24.80;52.26;99632.77;1700266;83;21581;-74
2022/07/10 05:01:12;;;;;;;1.40;1.00;;;;;;;24.79;51.71;99628.97;1702393;83;20998;-79
2022/07/10 05:03:38;;;;;;;2.52;0.78;;;;;;;24.74;51.89;99623.63;1700266;83;21133;-73
2022/07/10 05:06:04;;;;;;;1.07;1.00;;;;;;;24.67;51.47;99628.90;1704273;83;21013;-77
2022/07/10 05:08:32;;;;;;;1.27;1.17;;;;;;;24.41;52.26;99624.97;1698368;83;21057;-80
2022/07/10 05:10:59;;;;;;;1.87;1.40;;;;;;;24.02;52.96;99624.23;1705211;83;21040;-75
2022/07/10 05:13:25;;;;;;;0.70;0.70;;;;;;;23.63;54.23;99629.36;1696963;83;21077;-72
2022/07/10 05:15:51;;;;;;;2.75;1.35;;;;;;;23.29;55.59;99637.69;1702366;83;21025;-76
2022/07/10 05:18:17;;;;;;;4.08;1.57;;;;;;;22.97;57.12;99628.22;1699890;83;21100;-77
2022/07/10 05:20:44;;;;;;;2.12;1.20;;;;;;;22.88;57.35;99625.86;1697021;83;21097;-76
2022/07/10 05:23:11;;;;;;;2.67;0.93;;;;;;;22.95;58.16;99630.41;1682879;83;21084;-75
2022/07/10 05:25:39;;;;;;;0.90;0.90;;;;;;;23.21;56.99;99631.53;1666452;85;21648;-75
2022/07/10 05:28:06;;;;;;;1.50;1.40;;;;;;;23.10;57.34;99635.71;1663586;85;21041;-77
2022/07/10 05:30:33;;;;;;;2.00;1.30;;;;;;;22.99;57.75;99632.02;1667169;85;21057;-77
2022/07/10 05:32:59;;;;;;;1.52;1.27;;;;;;;23.06;57.67;99620.28;1669705;85;21132;-76
2022/07/10 05:35:26;;;;;;;1.70;1.27;;;;;;;23.12;57.03;99628.08;1671441;85;21109;-75
2022/07/10 05:37:53;;;;;;;1.20;1.00;;;;;;;23.14;57.10;99623.72;1671975;85;21049;-77
2022/07/10 05:40:20;;;;;;;1.67;1.10;;;;;;;23.12;58.05;99622.64;1672405;85;21053;-78
2022/07/10 05:42:48;;;;;;;1.27;1.00;;;;;;;23.13;58.06;99622.08;1668361;85;21612;-75
2022/07/10 05:45:14;;;;;;;0.98;0.82;;;;;;;23.17;57.77;99614.98;1668533;85;21058;-78
2022/07/10 05:47:40;;;;;;;1.27;1.02;;;;;;;23.33;58.04;99618.33;1665662;85;21585;-78
2022/07/10 05:50:06;;;;;;;1.00;0.90;;;;;;;23.62;55.97;99614.69;1668099;84;21061;-79
2022/07/10 05:52:33;;;;;;;3.02;1.22;;;;;;;23.63;56.04;99614.40;1639320;86;21125;-78
2022/07/10 05:54:59;;;;;;;1.00;0.85;;;;;;;23.63;56.07;99610.88;1669382;85;21613;-86
2022/07/10 05:57:25;;;;;;;2.22;1.00;;;;;;;23.72;55.77;99618.64;1657496;85;21081;-83
2022/07/10 05:59:52;;;;;;;3.52;1.20;;;;;;;23.77;55.58;99618.58;1658887;85;21213;-82
2022/07/10 06:02:19;;;;;;;2.02;1.10;;;;;;;23.71;55.64;99619.73;1659002;85;21046;-82
2022/07/10 06:04:46;;;;;;;1.45;1.35;;;;;;;23.45;55.81;99601.05;1656571;85;21039;-79
2022/07/10 06:07:12;;;;;;;1.20;0.90;;;;;;;23.35;56.60;99621.56;1658556;85;21043;-80
2022/07/10 06:09:39;;;;;;;1.12;1.02;;;;;;;23.37;57.06;99620.72;1655755;85;21176;-78
2022/07/10 06:12:05;;;;;;;3.60;1.30;;;;;;;23.43;57.13;99608.70;1653786;85;21177;-81
2022/07/10 06:14:32;;;;;;;4.05;2.05;;;;;;;23.64;55.96;99615.20;1650089;85;21047;-76
2022/07/10 06:16:58;;;;;;;5.40;1.37;;;;;;;23.72;56.57;99606.40;1656403;85;21502;-78
2022/07/10 06:19:26;;;;;;;5.03;1.12;;;;;;;24.02;56.37;99604.37;1648753;85;21110;-83
2022/07/10 06:22:30;;;;;;;2.42;1.27;;;;;;;24.44;54.69;99610.77;1620722;87;21061;-80
2022/07/10 06:24:20;;;;;;;1.32;1.02;;;;;;;24.61;53.76;99607.51;1614220;87;21098;-85
2022/07/10 06:26:46;;;;;;;2.12;1.60;;;;;;;24.73;54.55;99607.02;1621453;88;21096;-80
2022/07/10 06:29:12;;;;;;;3.52;1.30;;;;;;;25.03;52.99;99602.91;1599476;88;21050;-83
2022/07/10 06:31:39;;;;;;;3.90;1.27;;;;;;;25.12;52.69;99602.45;1616115;87;21086;-79
2022/07/10 06:34:05;;;;;;;1.20;1.20;;;;;;;25.06;52.99;99603.11;1629604;86;21142;-84
2022/07/10 06:36:32;;;;;;;1.42;1.10;;;;;;;24.94;53.35;99601.45;1636948;86;21054;-78
2022/07/10 06:38:58;;;;;;;1.20;1.10;;;;;;;24.92;53.09;99602.84;1633013;86;21033;-77
2022/07/10 06:41:24;;;;;;;1.22;1.12;;;;;;;24.91;53.11;99605.34;1579371;89;21050;-83
2022/07/10 06:43:50;;;;;;;3.35;1.87;;;;;;;24.87;53.18;99596.39;1629268;86;21683;-80
2022/07/10 06:46:16;;;;;;;1.10;0.95;;;;;;;24.90;53.21;99599.05;1599439;88;21175;-81
2022/07/10 06:48:44;;;;;;;3.87;2.45;;;;;;;24.89;54.08;99593.93;1601159;88;21142;-75
2022/07/10 06:51:10;;;;;;;1.12;0.75;;;;;;;25.03;53.21;99596.91;1598182;89;21048;-81
2022/07/10 06:53:36;;;;;;;1.60;1.12;;;;;;;25.12;52.82;99596.20;1603492;87;21563;-79
2022/07/10 06:56:03;;;;;;;2.40;1.60;;;;;;;25.15;52.15;99599.70;1647630;85;21006;-78
2022/07/10 06:58:30;;;;;;;1.85;1.00;;;;;;;25.22;51.85;99594.08;1668968;85;21062;-80
2022/07/10 07:00:56;;;;;;;0.85;0.85;;;;;;;25.08;52.10;99591.11;1658576;84;21013;-86
2022/07/10 07:03:22;;;;;;;1.22;1.12;;;;;;;24.94;52.61;99586.46;1657537;85;21140;-83
2022/07/10 07:05:49;;;;;;;1.10;1.10;;;;;;;24.79;52.69;99591.65;1656838;85;21046;-84
2022/07/10 07:08:17;;;;;;;2.70;1.27;;;;;;;24.67;52.85;99587.23;1649666;85;21139;-82
2022/07/10 07:10:44;;;;;;;2.33;1.20;;;;;;;24.77;54.44;99586.22;1659915;85;22375;-84
2022/07/10 07:13:10;;;;;;;2.35;1.35;;;;;;;24.94;53.26;99581.02;1669422;84;21015;-83
2022/07/10 07:15:41;;;;;;;2.60;1.15;;;;;;;24.98;53.29;99576.56;1675007;84;21039;-79
2022/07/10 07:18:07;;;;;;;2.52;1.30;;;;;;;24.95;53.81;99569.55;1670241;84;21072;-82
2022/07/10 07:23:19;;;;;;;1.52;1.40;;;;;;;25.05;54.17;99569.33;1656707;84;21042;-79
2022/07/10 07:25:49;;;;;;;0.90;0.80;;;;;;;25.25;52.74;99569.50;1629444;87;21012;-85
2022/07/10 07:28:18;;;;;;;1.45;1.00;;;;;;;25.33;52.80;99574.23;1586462;87;21074;-75
2022/07/10 07:30:45;;;;;;;3.47;1.70;;;;;;;25.44;52.51;99561.19;1637919;86;21036;-79
2022/07/10 07:33:12;;;;;;;1.50;0.60;;;;;;;25.52;51.93;99573.30;1641517;87;21081;-82
2022/07/10 07:35:39;;;;;;;2.58;1.32;;;;;;;25.66;51.79;99568.62;1665034;85;21130;-83
2022/07/10 07:38:06;;;;;;;1.35;0.68;;;;;;;25.63;51.42;99570.02;1668069;85;21069;-79
2022/07/10 07:40:37;;;;;;;1.70;1.20;;;;;;;25.61;51.47;99570.09;1657804;85;21542;-76
2022/07/10 07:43:04;;;;;;;2.05;0.85;;;;;;;25.60;52.01;99571.22;1679632;85;21148;-74
2022/07/10 07:45:30;;;;;;;1.20;0.80;;;;;;;25.25;51.83;99527.23;1665201;84;21007;-84
2022/07/10 07:47:59;;;;;;;2.83;1.00;;;;;;;25.35;52.60;99569.84;1675322;84;21038;-87
2022/07/10 07:50:29;;;;;;;1.72;1.62;;;;;;;25.12;53.16;99570.30;1672930;84;21641;-86
2022/07/10 07:52:56;;;;;;;1.45;0.98;;;;;;;24.86;54.22;99571.63;1676305;84;21022;-88
2022/07/10 07:55:23;;;;;;;1.55;0.90;;;;;;;24.70;54.79;99571.65;1669347;84;21320;-85
2022/07/10 07:57:56;;;;;;;1.92;0.93;;;;;;;24.59;55.42;99575.11;1632663;86;21011;-79
2022/07/10 08:00:24;;;;;;;0.95;0.95;;;;;;;24.47;55.09;99578.86;1632409;86;21048;-83
2022/07/10 08:02:52;;;;;;;2.25;1.05;;;;;;;24.10;55.56;99538.35;1640219;86;21048;-85
2022/07/10 08:05:20;;;;;;;4.60;1.17;;;;;;;24.25;56.32;99575.41;1639577;86;20963;-81
2022/07/10 08:07:54;;;;;;;1.17;0.93;;;;;;;24.10;56.87;99576.47;1638082;86;21063;-77
2022/07/10 08:10:26;;;;;;;1.07;0.98;;;;;;;23.99;57.54;99573.65;1643059;87;21031;-81
2022/07/10 08:12:53;;;;;;;2.35;1.52;;;;;;;23.92;58.60;99574.01;1626180;86;21104;-84
2022/07/10 08:15:23;;;;;;;1.00;0.72;;;;;;;23.95;58.07;99579.44;1642524;86;21171;-76
2022/07/10 08:17:57;;;;;;;0.70;0.70;;;;;;;23.99;57.98;99573.09;1642202;86;21531;-86
2022/07/10 08:20:25;;;;;;;1.20;1.20;;;;;;;23.89;57.79;99574.63;1638014;87;20992;-81
2022/07/10 08:22:53;;;;;;;2.72;0.95;;;;;;;23.74;58.42;99566.10;1639909;86;21825;-79
2022/07/10 08:25:20;;;;;;;1.47;0.88;;;;;;;23.73;58.13;99572.63;1638731;85;20965;-83
2022/07/10 08:27:46;;;;;;;2.25;0.80;;;;;;;23.75;58.26;99567.70;1649484;86;21044;-82
2022/07/10 08:30:12;;;;;;;1.42;1.10;;;;;;;23.73;57.77;99571.27;1639235;85;21143;-81
2022/07/10 08:32:40;;;;;;;1.62;1.20;;;;;;;23.75;57.33;99569.06;1646783;85;21059;-81
2022/07/10 08:35:09;;;;;;;1.67;1.02;;;;;;;23.83;57.27;99569.81;1643879;85;21103;-81
2022/07/10 08:37:42;;;;;;;0.85;0.85;;;;;;;23.89;56.82;99567.25;1650738;85;21019;-80
2022/07/10 08:40:14;;;;;;;3.17;0.98;;;;;;;23.90;57.01;99566.17;1653495;85;21044;-87
2022/07/10 08:42:44;;;;;;;1.25;1.15;;;;;;;23.94;56.29;99560.94;1652811;86;21143;-75
2022/07/10 08:45:11;;;;;;;2.15;1.12;;;;;;;23.97;55.71;99560.89;1628241;85;21133;-83
2022/07/10 08:47:41;;;;;;;0.78;0.78;;;;;;;23.97;56.51;99563.61;1656672;85;21057;-83
2022/07/10 08:50:16;;;;;;;2.60;1.30;;;;;;;24.05;56.11;99562.92;1640030;85;21187;-84
2022/07/10 08:53:03;;;;;;;3.77;1.10;;;;;;;24.16;55.77;99560.30;1642202;85;21126;-87
2022/07/10 08:55:29;;;;;;;1.00;1.00;;;;;;;24.26;55.27;99557.42;1611486;85;21166;-81
2022/07/10 08:57:55;;;;;;;1.70;1.42;;;;;;;24.32;54.23;99555.95;1661432;85;21058;-84
2022/07/10 09:00:23;;;;;;;0.98;0.45;;;;;;;24.38;53.99;99560.22;1662258;85;21027;-82
2022/07/10 09:02:49;;;;;;;2.08;0.70;;;;;;;24.42;53.84;99555.78;1652569;85;21057;-77
2022/07/10 09:05:16;;;;;;;1.25;0.85;;;;;;;24.34;53.03;99558.64;1652704;85;21065;-77
2022/07/10 09:07:43;;;;;;;1.67;0.50;;;;;;;24.19;53.99;99551.54;1656980;85;21046;-77
2022/07/10 09:10:11;;;;;;;0.95;0.40;;;;;;;24.10;54.67;99558.20;1650485;85;21479;-78
2022/07/10 09:12:54;;;;;;;0.65;0.65;;;;;;;24.14;54.81;99556.27;1661614;85;21066;-78
2022/07/10 09:15:24;;;;;;;3.12;0.53;;;;;;;24.16;54.59;99563.58;1658114;85;21082;-78
2022/07/10 09:18:02;;;;;;;0.70;0.50;;;;;;;24.12;53.47;99566.08;1656384;85;21061;-84
2022/07/10 09:20:37;;;;;;;0.85;0.60;;;;;;;24.03;54.22;99558.34;1653101;85;21035;-77
2022/07/10 09:23:22;;;;;;;0.40;0.40;;;;;;;24.12;54.69;99551.67;1660370;84;20959;-80
2022/07/10 09:25:52;;;;;;;2.37;0.75;;;;;;;24.29;53.55;99549.99;1668996;84;21086;-75
2022/07/10 09:28:21;;;;;;;0.70;0.57;;;;;;;24.37;51.94;99555.30;1657459;84;21070;-79
2022/07/10 09:30:49;;;;;;;1.50;0.47;;;;;;;24.33;52.36;99545.32;1652550;84;21058;-80
2022/07/10 09:33:30;;;;;;;0.37;0.37;;;;;;;24.34;52.67;99541.50;1669343;84;21005;-78
2022/07/10 09:36:08;;;;;;;0.82;0.30;;;;;;;24.37;52.14;99536.80;1670003;84;21697;-84
2022/07/10 09:38:48;;;;;;;1.55;0.85;;;;;;;24.34;52.34;99535.50;1669461;84;21662;-85
2022/07/10 09:41:25;;;;;;;0.62;0.30;;;;;;;24.31;51.86;99530.64;1673244;84;21445;-78
2022/07/10 09:44:03;;;;;;;0.82;0.50;;;;;;;24.28;51.69;99531.25;1649642;84;21055;-80
2022/07/10 09:46:38;;;;;;;0.62;0.42;;;;;;;24.31;51.08;99536.64;1670793;84;21082;-85
2022/07/10 09:49:12;;;;;;;1.30;0.55;;;;;;;24.28;51.06;99528.53;1657166;84;21091;-79
2022/07/10 09:51:43;;;;;;;0.65;0.37;;;;;;;24.22;51.32;99524.26;1648351;84;21086;-85
2022/07/10 09:54:10;;;;;;;1.80;0.30;;;;;;;24.15;51.16;99520.58;1654498;84;21079;-79
2022/07/10 09:56:44;;;;;;;0.72;0.50;;;;;;;24.10;50.87;99518.73;1643522;84;21085;-80
2022/07/10 09:59:16;;;;;;;1.87;0.30;;;;;;;24.11;50.90;99523.65;1623733;87;21429;-80
2022/07/10 10:01:49;;;;;;;1.65;0.55;;;;;;;24.18;50.72;99518.60;1627815;86;21091;-81
2022/07/10 10:04:18;;;;;;;0.37;0.37;;;;;;;24.23;50.95;99519.08;1609097;86;21447;-83
2022/07/10 10:07:00;;;;;;;0.40;0.40;;;;;;;24.22;50.80;99519.64;1629078;86;21159;-77
2022/07/10 10:09:40;;;;;;;0.50;0.30;;;;;;;24.24;51.42;99524.77;1617959;86;21108;-81
2022/07/10 10:12:46;;;;;;;0.75;0.60;;;;;;;24.25;50.88;99524.47;1634550;86;21055;-81
2022/07/10 10:15:14;;;;;;;0.40;0.23;;;;;;;24.26;50.17;99522.55;1635368;86;21143;-82
2022/07/10 10:17:41;;;;;;;0.95;0.40;;;;;;;24.28;48.75;99515.72;1630317;86;21540;-84
2022/07/10 10:22:56;;;;;;;1.65;1.00;;;;;;;24.39;48.12;99522.33;1622357;86;21197;-80
2022/07/10 10:25:24;;;;;;;1.27;0.20;;;;;;;24.40;48.82;99517.15;1572953;89;21061;-85
2022/07/10 10:27:50;;;;;;;0.35;0.10;;;;;;;24.28;47.26;99506.75;1630948;86;22123;-84
2022/07/10 10:30:18;;;;;;;4.40;0.40;;;;;;;24.22;47.68;99507.92;1597702;89;21605;-75
2022/07/10 10:32:44;;;;;;;1.07;0.30;;;;;;;24.20;47.99;99508.22;1617517;86;21026;-81
2022/07/10 10:35:10;;;;;;;2.60;0.25;;;;;;;24.22;47.94;99510.12;1629323;85;21050;-81
2022/07/10 10:37:42;;;;;;;0.20;0.20;;;;;;;24.24;47.99;99509.26;1634326;86;21078;-82
2022/07/10 10:40:10;;;;;;;0.20;0.20;;;;;;;24.24;47.53;99502.45;1631387;86;21096;-80
2022/07/10 10:42:43;;;;;;;0.20;0.10;;;;;;;24.26;47.06;99506.21;1623484;86;21763;-85
2022/07/10 10:45:32;;;;;;;0.85;0.20;;;;;;;24.27;46.34;99500.47;1636614;85;21050;-85
2022/07/10 10:48:09;;;;;;;1.10;0.50;;;;;;;24.31;46.33;99493.88;1647140;85;21089;-83
2022/07/10 10:50:47;;;;;;;2.25;0.47;;;;;;;24.31;44.76;99489.79;1642117;85;21079;-80
2022/07/10 10:53:28;;;;;;;0.30;0.10;;;;;;;24.23;45.23;99495.38;1653418;85;21044;-78
2022/07/10 10:56:07;;;;;;;0.45;0.15;;;;;;;24.14;45.40;99488.20;1641415;85;21862;-81
2022/07/10 10:58:41;;;;;;;0.72;0.50;;;;;;;24.09;45.33;99490.45;1639738;85;21119;-78
2022/07/10 11:01:26;;;;;;;0.47;0.20;;;;;;;24.12;46.21;99483.61;1602385;89;21107;-80
2022/07/10 11:04:17;;;;;;;1.02;0.20;;;;;;;24.18;46.20;99484.56;1662556;84;21026;-78
2022/07/10 11:06:53;;;;;;;1.67;0.20;;;;;;;24.23;46.66;99480.41;1676083;84;21111;-85
2022/07/10 11:09:33;;;;;;;2.53;0.30;;;;;;;24.26;46.97;99478.45;1674016;84;20980;-84
2022/07/10 11:12:12;;;;;;;2.15;0.20;;;;;;;24.35;46.62;99473.66;1671273;84;21074;-82
2022/07/10 11:14:43;;;;;;;0.35;0.28;;;;;;;24.41;46.85;99478.72;1650143;84;21147;-79
2022/07/10 11:17:11;;;;;;;0.23;0.23;;;;;;;24.37;46.89;99478.25;1676248;84;21133;-80
2022/07/10 11:19:39;;;;;;;0.33;0.33;;;;;;;24.34;47.44;99478.31;1662926;84;21116;-79
2022/07/10 11:22:20;;;;;;;1.15;0.37;;;;;;;24.37;46.72;99478.25;1660068;84;20999;-79
2022/07/10 11:25:16;;;;;;;0.42;0.30;;;;;;;24.34;47.30;99481.03;1660152;84;21102;-76
2022/07/10 11:28:01;;;;;;;0.20;0.17;;;;;;;24.29;47.97;99473.75;1634286;84;21070;-77
2022/07/10 11:30:27;;;;;;;0.47;0.20;;;;;;;24.25;47.94;99485.55;1688225;84;21130;-81
2022/07/10 11:32:54;;;;;;;1.05;0.30;;;;;;;24.20;46.64;99486.44;1679942;84;21066;-79
2022/07/10 11:35:20;;;;;;;0.20;0.20;;;;;;;24.22;46.30;99491.05;1669245;84;21007;-82
2022/07/10 11:37:53;;;;;;;1.45;0.30;;;;;;;24.19;46.86;99475.31;1672013;84;20989;-79
2022/07/10 11:40:20;;;;;;;0.53;0.30;;;;;;;24.23;46.84;99475.52;1681039;84;21017;-76
2022/07/10 11:42:53;;;;;;;0.40;0.25;;;;;;;24.28;46.54;99483.04;1668181;84;21084;-78
2022/07/10 11:45:30;;;;;;;1.07;0.25;;;;;;;24.31;46.66;99482.18;1655007;84;20967;-82
2022/07/10 11:47:57;;;;;;;0.37;0.37;;;;;;;24.31;46.67;99477.53;1645995;85;21012;-82
2022/07/10 11:50:24;;;;;;;0.70;0.70;;;;;;;24.33;46.05;99482.69;1637556;85;21130;-83
2022/07/10 11:52:51;;;;;;;0.28;0.28;;;;;;;24.30;46.27;99480.02;1633117;85;21069;-81
2022/07/10 11:55:21;;;;;;;1.57;0.20;;;;;;;24.27;45.24;99481.97;1634501;83;21068;-79